Time;durP1;ratioP1;P1;durP2;ratioP2;P2;SDS_P1;SDS_P2;PMS_P1;PMS_P2;Temp;Humidity;BMP_temperature;BMP_pressure;BME280_temperature;BME280_humidity;BME280_pressure;Samples;Min_cycle;Max_cycle;Signal;HPM_P1;HPM_P2
2023/08/22 00:00:30;;;;;;;13.80;9.50;;;28.10;75.20;;;;;;5033544;28;20033;-73
2023/08/22 00:02:56;;;;;;;12.73;9.52;;;28.00;75.40;;;;;;5033624;28;20029;-74
2023/08/22 00:05:23;;;;;;;15.70;8.95;;;28.00;75.50;;;;;;5033665;28;20056;-75
2023/08/22 00:07:49;;;;;;;10.50;8.88;;;28.00;75.60;;;;;;5033603;28;20509;-73
2023/08/22 00:10:16;;;;;;;9.85;8.70;;;28.00;75.90;;;;;;5033778;28;20033;-73
2023/08/22 00:12:42;;;;;;;9.82;8.82;;;28.00;76.00;;;;;;5033160;28;20018;-73
2023/08/22 00:15:10;;;;;;;10.82;9.27;;;28.00;76.00;;;;;;5033023;28;20427;-74
2023/08/22 00:17:36;;;;;;;12.23;9.35;;;27.90;76.20;;;;;;5033558;28;20021;-74
2023/08/22 00:20:08;;;;;;;17.88;9.23;;;27.90;76.50;;;;;;5033704;28;20025;-73
2023/08/22 00:22:34;;;;;;;12.63;8.77;;;27.90;76.20;;;;;;5033445;28;20131;-74
2023/08/22 00:25:00;;;;;;;14.68;9.18;;;27.80;76.30;;;;;;5033209;28;20021;-74
2023/08/22 00:27:26;;;;;;;10.15;8.57;;;27.90;76.40;;;;;;5033350;28;20029;-75
2023/08/22 00:29:53;;;;;;;11.48;9.50;;;27.80;76.60;;;;;;5033064;28;20112;-74
2023/08/22 00:32:18;;;;;;;13.13;9.07;;;27.80;76.40;;;;;;5033209;28;20108;-73
2023/08/22 00:34:44;;;;;;;12.38;8.70;;;27.80;76.40;;;;;;5032747;28;20501;-73
2023/08/22 00:37:10;;;;;;;10.38;9.30;;;27.70;77.10;;;;;;5031627;28;20057;-74
2023/08/22 00:39:36;;;;;;;13.45;9.13;;;27.70;76.60;;;;;;5032900;28;20029;-74
2023/08/22 00:42:01;;;;;;;16.35;9.00;;;27.70;76.50;;;;;;5032680;28;20036;-73
2023/08/22 00:44:27;;;;;;;10.63;8.48;;;27.70;77.10;;;;;;5032681;28;20049;-73
2023/08/22 00:46:53;;;;;;;9.98;9.00;;;27.70;76.40;;;;;;5032606;28;20418;-75
2023/08/22 00:49:19;;;;;;;18.85;9.48;;;27.60;76.30;;;;;;5032816;28;20022;-75
2023/08/22 00:51:45;;;;;;;11.05;9.50;;;27.60;76.40;;;;;;5033154;28;20033;-74
2023/08/22 00:54:12;;;;;;;10.27;8.68;;;27.60;76.50;;;;;;5032768;28;20029;-74
2023/08/22 00:56:38;;;;;;;10.55;8.77;;;;;;;;;;5032789;28;20049;-74
2023/08/22 00:59:04;;;;;;;11.50;8.98;;;27.50;76.00;;;;;;5030097;28;20025;-74
2023/08/22 01:01:30;;;;;;;10.60;9.27;;;27.50;76.70;;;;;;5028329;28;20107;-74
2023/08/22 01:03:56;;;;;;;12.70;9.45;;;27.40;76.50;;;;;;5028919;28;20025;-75
2023/08/22 01:06:43;;;;;;;14.18;8.68;;;27.40;76.70;;;;;;5032081;28;20048;-74
2023/08/22 01:09:18;;;;;;;10.20;9.07;;;27.40;76.70;;;;;;5032174;28;20025;-74
2023/08/22 01:11:49;;;;;;;10.55;9.50;;;27.30;76.80;;;;;;5032845;28;20053;-74
2023/08/22 01:14:20;;;;;;;12.32;9.70;;;27.30;76.80;;;;;;5032405;28;20486;-76
2023/08/22 01:16:48;;;;;;;10.77;9.32;;;27.30;77.00;;;;;;5032569;28;20091;-74
2023/08/22 01:19:17;;;;;;;10.52;8.77;;;27.30;77.10;;;;;;5032548;28;20097;-73
2023/08/22 01:21:52;;;;;;;12.55;9.20;;;27.30;77.20;;;;;;5032430;28;20025;-75
2023/08/22 01:24:19;;;;;;;10.77;9.05;;;27.30;77.10;;;;;;5032236;28;20462;-74
2023/08/22 01:26:47;;;;;;;10.73;9.63;;;27.20;77.00;;;;;;5032293;28;20434;-74
2023/08/22 01:29:38;;;;;;;10.27;9.27;;;27.20;77.20;;;;;;5031757;28;20033;-74
2023/08/22 01:32:23;;;;;;;12.18;9.35;;;27.20;77.20;;;;;;5032340;28;20021;-74
2023/08/22 01:34:54;;;;;;;10.70;9.20;;;27.20;77.00;;;;;;5032471;28;20033;-74
2023/08/22 01:37:22;;;;;;;11.82;8.75;;;27.20;77.10;;;;;;5031803;28;20129;-74
2023/08/22 01:39:48;;;;;;;11.00;9.35;;;27.20;77.20;;;;;;5032308;28;20017;-74
2023/08/22 01:42:14;;;;;;;10.48;9.05;;;27.20;77.30;;;;;;5032181;28;20071;-74
2023/08/22 01:44:40;;;;;;;11.68;9.48;;;27.10;77.50;;;;;;5032325;28;20035;-74
2023/08/22 01:47:05;;;;;;;13.05;9.43;;;27.10;77.60;;;;;;5032974;28;20048;-74
2023/08/22 01:49:35;;;;;;;10.52;9.27;;;27.10;77.50;;;;;;5036122;28;20029;-74
2023/08/22 01:52:01;;;;;;;14.65;9.30;;;27.10;77.50;;;;;;5035991;28;20060;-75
2023/08/22 01:54:27;;;;;;;10.57;9.50;;;27.10;77.50;;;;;;5036271;28;20517;-74
2023/08/22 01:56:52;;;;;;;15.70;9.85;;;27.10;77.80;;;;;;5036173;28;20029;-74
2023/08/22 01:59:18;;;;;;;12.02;8.38;;;27.00;77.70;;;;;;5035974;28;20030;-74
2023/08/22 02:01:44;;;;;;;13.23;9.35;;;27.00;77.80;;;;;;5035722;28;20044;-75
2023/08/22 02:04:10;;;;;;;10.02;9.00;;;27.00;77.90;;;;;;5035797;28;20022;-76
2023/08/22 02:06:35;;;;;;;10.25;9.10;;;27.00;78.00;;;;;;5035584;28;20021;-75
2023/08/22 02:09:01;;;;;;;9.82;8.82;;;26.90;78.00;;;;;;5035904;28;20025;-75
2023/08/22 02:11:27;;;;;;;10.65;9.52;;;26.90;78.10;;;;;;5035924;28;20026;-75
2023/08/22 02:13:53;;;;;;;9.95;9.05;;;26.90;78.20;;;;;;5035273;28;20478;-74
2023/08/22 02:16:18;;;;;;;12.02;8.48;;;26.90;78.30;;;;;;5034365;28;20041;-75
2023/08/22 02:18:44;;;;;;;10.32;9.25;;;26.80;78.20;;;;;;5035687;28;20021;-74
2023/08/22 02:21:10;;;;;;;11.73;8.95;;;26.80;78.30;;;;;;5035670;28;20033;-74
2023/08/22 02:23:35;;;;;;;11.75;9.30;;;26.80;78.40;;;;;;5035366;28;20049;-74
2023/08/22 02:26:01;;;;;;;14.82;10.10;;;26.80;78.50;;;;;;5035345;28;20056;-74
2023/08/22 02:28:27;;;;;;;12.73;8.88;;;26.80;78.60;;;;;;5035479;28;20093;-75
2023/08/22 02:30:56;;;;;;;14.60;9.52;;;26.70;78.90;;;;;;5035758;28;20040;-74
2023/08/22 02:33:23;;;;;;;12.27;9.95;;;26.70;78.80;;;;;;5035265;28;20009;-74
2023/08/22 02:35:49;;;;;;;12.70;9.20;;;26.70;79.00;;;;;;5035296;28;20069;-74
2023/08/22 02:38:14;;;;;;;10.60;9.63;;;26.70;79.20;;;;;;5035232;28;20527;-75
2023/08/22 02:40:40;;;;;;;10.68;8.55;;;26.70;79.20;;;;;;5035494;28;20093;-74
2023/08/22 02:43:06;;;;;;;18.67;9.43;;;26.60;79.10;;;;;;5033811;28;20017;-74
2023/08/22 02:45:32;;;;;;;11.57;9.45;;;26.70;79.10;;;;;;5034880;28;20160;-74
2023/08/22 02:47:57;;;;;;;12.43;9.70;;;26.60;78.70;;;;;;5035015;28;20017;-75
2023/08/22 02:50:23;;;;;;;10.88;9.55;;;26.60;78.80;;;;;;5035127;28;20071;-74
2023/08/22 02:52:50;;;;;;;11.45;8.93;;;26.60;78.70;;;;;;5035094;28;20079;-74
2023/08/22 02:55:17;;;;;;;13.18;9.13;;;26.60;78.80;;;;;;5034952;28;20500;-74
2023/08/22 02:57:43;;;;;;;11.15;9.32;;;26.60;78.70;;;;;;5034641;28;20500;-74
2023/08/22 03:00:11;;;;;;;19.40;9.30;;;26.60;78.60;;;;;;5034800;28;20022;-74
2023/08/22 03:02:37;;;;;;;12.77;8.65;;;26.50;78.70;;;;;;5035045;28;20026;-75
2023/08/22 03:05:07;;;;;;;14.20;9.73;;;26.50;78.60;;;;;;5034908;28;20554;-75
2023/08/22 03:07:33;;;;;;;12.20;8.90;;;26.50;78.70;;;;;;5034791;28;20522;-74
2023/08/22 03:09:59;;;;;;;13.27;9.65;;;26.50;78.50;;;;;;5034771;28;20041;-74
2023/08/22 03:12:24;;;;;;;10.60;9.02;;;26.50;78.60;;;;;;5034145;28;20021;-75
2023/08/22 03:14:50;;;;;;;15.52;9.55;;;26.40;78.80;;;;;;5034487;28;20029;-75
2023/08/22 03:17:16;;;;;;;13.10;9.02;;;26.40;78.80;;;;;;5034346;28;20030;-75
2023/08/22 03:19:42;;;;;;;11.93;9.27;;;26.40;79.00;;;;;;5034525;28;20032;-75
2023/08/22 03:22:08;;;;;;;12.00;9.95;;;26.40;79.80;;;;;;5034294;28;20470;-74
2023/08/22 03:24:33;;;;;;;21.95;11.05;;;26.30;79.30;;;;;;5034297;28;20533;-73
2023/08/22 03:26:59;;;;;;;23.30;12.23;;;26.30;79.90;;;;;;5034148;28;20040;-75
2023/08/22 03:29:25;;;;;;;23.15;12.10;;;26.30;80.40;;;;;;5034102;28;20021;-74
2023/08/22 03:31:51;;;;;;;25.77;11.50;;;26.20;80.80;;;;;;5034081;28;20108;-75
2023/08/22 03:34:17;;;;;;;29.77;12.30;;;26.20;81.50;;;;;;5034166;28;20545;-74
2023/08/22 03:36:42;;;;;;;27.13;13.38;;;26.20;81.80;;;;;;5034024;28;20053;-74
2023/08/22 03:39:09;;;;;;;13.00;9.55;;;26.20;82.00;;;;;;5033990;28;20033;-74
2023/08/22 03:41:35;;;;;;;19.67;12.10;;;26.20;81.80;;;;;;5034106;28;20078;-73
2023/08/22 03:44:00;;;;;;;12.25;10.07;;;26.10;81.70;;;;;;5033977;28;20033;-73
2023/08/22 03:46:26;;;;;;;10.73;9.57;;;26.10;81.40;;;;;;5034030;28;20036;-75
2023/08/22 03:48:52;;;;;;;13.43;9.98;;;26.10;81.20;;;;;;5033949;28;20032;-74
2023/08/22 03:51:18;;;;;;;11.80;8.93;;;26.00;81.10;;;;;;5033902;28;20028;-74
2023/08/22 03:53:44;;;;;;;13.93;9.05;;;26.10;81.30;;;;;;5033918;28;20079;-73
2023/08/22 03:56:10;;;;;;;12.27;8.98;;;26.00;81.00;;;;;;5033627;28;20232;-74
2023/08/22 03:58:35;;;;;;;11.27;10.05;;;26.00;81.20;;;;;;5033879;28;20025;-74
2023/08/22 04:01:04;;;;;;;10.55;9.15;;;26.00;80.60;;;;;;5033793;28;20045;-75
2023/08/22 04:03:31;;;;;;;14.35;10.15;;;26.10;80.50;;;;;;5033562;28;20031;-75
2023/08/22 04:05:59;;;;;;;18.15;10.05;;;26.10;81.00;;;;;;5032114;28;20039;-75
2023/08/22 04:08:25;;;;;;;12.88;9.38;;;26.10;81.50;;;;;;5033459;28;20378;-74
2023/08/22 04:10:52;;;;;;;14.13;9.70;;;26.10;81.50;;;;;;5032533;28;20041;-74
2023/08/22 04:13:18;;;;;;;13.05;9.07;;;26.10;81.50;;;;;;5033290;28;20025;-74
2023/08/22 04:15:44;;;;;;;10.40;9.40;;;26.10;81.00;;;;;;5033211;28;20045;-73
2023/08/22 04:18:10;;;;;;;13.77;9.48;;;26.10;80.70;;;;;;5033566;28;20029;-74
2023/08/22 04:20:36;;;;;;;16.08;9.30;;;26.10;80.60;;;;;;5033612;28;20033;-73
2023/08/22 04:23:02;;;;;;;12.10;9.60;;;26.20;80.40;;;;;;5033114;28;20028;-74
2023/08/22 04:25:28;;;;;;;10.90;9.45;;;26.20;80.40;;;;;;5033026;28;20500;-74
2023/08/22 04:27:54;;;;;;;13.02;9.77;;;26.10;80.50;;;;;;5033303;28;20021;-75
2023/08/22 04:30:20;;;;;;;12.35;10.25;;;26.10;80.40;;;;;;5033267;28;20021;-73
2023/08/22 04:32:45;;;;;;;15.75;9.95;;;26.10;80.40;;;;;;5032836;28;20025;-74
2023/08/22 04:35:11;;;;;;;14.80;10.02;;;26.00;80.70;;;;;;5032679;28;20036;-71
2023/08/22 04:37:37;;;;;;;14.27;9.75;;;26.00;80.90;;;;;;5032086;28;20046;-70
2023/08/22 04:40:03;;;;;;;12.68;9.48;;;25.90;81.30;;;;;;5032244;28;20052;-71
2023/08/22 04:42:29;;;;;;;13.98;9.30;;;25.90;81.10;;;;;;5033089;28;20079;-72
2023/08/22 04:44:55;;;;;;;12.48;8.40;;;25.90;81.20;;;;;;5033015;28;20084;-76
2023/08/22 04:47:20;;;;;;;11.85;8.30;;;25.90;80.60;;;;;;5032959;28;20021;-76
2023/08/22 04:49:46;;;;;;;11.57;8.32;;;25.90;80.10;;;;;;5031694;28;20025;-72
2023/08/22 04:52:12;;;;;;;12.55;8.00;;;25.90;79.70;;;;;;5032906;28;20052;-72
2023/08/22 04:54:38;;;;;;;14.02;7.95;;;25.90;79.20;;;;;;5032778;28;20269;-71
2023/08/22 04:57:04;;;;;;;12.20;8.10;;;25.90;79.10;;;;;;5032812;28;20036;-72
2023/08/22 04:59:29;;;;;;;13.20;8.45;;;26.00;79.10;;;;;;5032905;28;20022;-71
2023/08/22 05:01:55;;;;;;;10.30;8.13;;;26.00;79.20;;;;;;5032818;28;20033;-72
2023/08/22 05:04:21;;;;;;;9.25;8.32;;;26.10;79.10;;;;;;5032060;28;20132;-72
2023/08/22 05:06:47;;;;;;;10.45;8.60;;;26.10;78.90;;;;;;5030765;28;20084;-72
2023/08/22 05:09:16;;;;;;;12.90;8.43;;;26.10;79.10;;;;;;5032959;28;20055;-71
2023/08/22 05:11:43;;;;;;;11.13;8.65;;;26.10;79.20;;;;;;5032881;28;20034;-71
2023/08/22 05:14:09;;;;;;;10.05;8.57;;;26.20;79.60;;;;;;5032945;28;20037;-72
2023/08/22 05:16:35;;;;;;;13.68;8.38;;;26.20;79.20;;;;;;5033062;28;20037;-71
2023/08/22 05:19:01;;;;;;;11.73;8.63;;;26.30;79.20;;;;;;5032882;28;20079;-74
2023/08/22 05:21:27;;;;;;;11.85;8.52;;;26.30;79.40;;;;;;5033867;28;20092;-71
2023/08/22 05:23:52;;;;;;;10.80;8.02;;;26.30;79.50;;;;;;5037418;28;20037;-71
2023/08/22 05:26:18;;;;;;;11.90;8.25;;;26.30;79.30;;;;;;5037044;28;20102;-72
2023/08/22 05:28:45;;;;;;;14.48;8.88;;;26.40;79.20;;;;;;5036949;28;20079;-71
2023/08/22 05:31:19;;;;;;;12.68;8.73;;;26.40;79.10;;;;;;5036905;28;20460;-71
2023/08/22 05:33:45;;;;;;;14.93;8.45;;;26.40;79.00;;;;;;5036577;28;20049;-72
2023/08/22 05:36:11;;;;;;;16.83;8.70;;;26.50;79.20;;;;;;5036381;28;20089;-71
2023/08/22 05:38:37;;;;;;;13.85;8.43;;;26.50;79.30;;;;;;5036841;28;20057;-72
2023/08/22 05:41:02;;;;;;;13.15;8.55;;;26.50;79.50;;;;;;5036480;28;20038;-72
2023/08/22 05:43:28;;;;;;;10.75;7.90;;;26.50;79.50;;;;;;5036617;28;20056;-71
2023/08/22 05:45:54;;;;;;;10.43;8.15;;;26.50;79.10;;;;;;5036316;28;20029;-72
2023/08/22 05:48:19;;;;;;;11.68;7.60;;;26.60;78.60;;;;;;5036614;28;20049;-70
2023/08/22 05:50:45;;;;;;;11.10;7.28;;;26.60;78.20;;;;;;5036423;28;20545;-72
2023/08/22 05:53:11;;;;;;;9.52;7.57;;;26.60;77.30;;;;;;5036110;28;20071;-70
2023/08/22 05:55:37;;;;;;;15.60;8.52;;;26.60;77.30;;;;;;5036395;28;20033;-70
2023/08/22 05:58:02;;;;;;;8.00;7.20;;;26.60;77.20;;;;;;5036458;28;20037;-70
2023/08/22 06:00:28;;;;;;;13.02;7.32;;;26.70;77.20;;;;;;5036387;28;20037;-71
2023/08/22 06:02:54;;;;;;;12.43;7.65;;;26.70;77.10;;;;;;5036457;28;20017;-73
2023/08/22 06:05:20;;;;;;;10.38;7.13;;;26.70;77.00;;;;;;5035819;28;20036;-71
2023/08/22 06:07:45;;;;;;;12.70;7.25;;;26.70;77.10;;;;;;5035704;28;20018;-72
2023/08/22 06:10:11;;;;;;;11.93;7.63;;;26.80;77.20;;;;;;5036157;28;20032;-72
2023/08/22 06:12:37;;;;;;;8.43;7.45;;;26.80;77.20;;;;;;5036024;28;20025;-72
2023/08/22 06:15:03;;;;;;;13.25;7.63;;;26.80;77.60;;;;;;5035818;28;20025;-71
2023/08/22 06:17:28;;;;;;;14.80;7.43;;;26.90;77.20;;;;;;5035699;28;20105;-71
2023/08/22 06:19:54;;;;;;;12.55;7.65;;;26.90;76.90;;;;;;5035579;28;20029;-71
2023/08/22 06:22:20;;;;;;;13.35;7.50;;;27.00;76.90;;;;;;5035514;28;20029;-71
2023/08/22 06:24:46;;;;;;;10.98;7.80;;;27.00;76.80;;;;;;5035585;28;20024;-71
2023/08/22 06:27:12;;;;;;;10.65;7.25;;;27.00;76.70;;;;;;5035655;28;20580;-70
2023/08/22 06:29:37;;;;;;;17.98;7.80;;;27.00;76.60;;;;;;5035116;28;20044;-73
2023/08/22 06:32:03;;;;;;;15.07;7.53;;;27.00;76.70;;;;;;5035429;28;20481;-74
2023/08/22 06:34:30;;;;;;;57.30;11.40;;;27.10;76.80;;;;;;5034880;28;20469;-73
2023/08/22 06:36:56;;;;;;;13.15;8.27;;;27.10;76.70;;;;;;5035431;28;20041;-72
2023/08/22 06:39:22;;;;;;;10.50;7.40;;;27.10;76.90;;;;;;5035589;28;20029;-72
2023/08/22 06:41:48;;;;;;;8.45;6.93;;;27.20;76.70;;;;;;5035307;28;20045;-71
2023/08/22 06:44:13;;;;;;;13.95;7.72;;;27.20;76.40;;;;;;5035676;28;20462;-71
2023/08/22 06:46:39;;;;;;;16.67;7.78;;;27.30;76.50;;;;;;5035505;28;20018;-72
2023/08/22 06:49:05;;;;;;;11.02;7.38;;;27.30;76.90;;;;;;5035226;28;20025;-72
2023/08/22 06:51:32;;;;;;;11.88;7.75;;;27.30;76.80;;;;;;5035265;28;20099;-73
2023/08/22 06:53:58;;;;;;;15.30;7.95;;;27.40;76.70;;;;;;5035277;28;20093;-71
2023/08/22 06:56:25;;;;;;;7.35;6.68;;;27.40;76.80;;;;;;5033837;28;20116;-71
2023/08/22 06:58:51;;;;;;;11.88;7.43;;;27.40;76.60;;;;;;5035127;28;20026;-73
2023/08/22 07:01:17;;;;;;;18.70;7.68;;;27.50;76.70;;;;;;5035156;28;20025;-73
2023/08/22 07:03:44;;;;;;;11.65;7.35;;;27.50;76.80;;;;;;5034892;28;20712;-76
2023/08/22 07:06:09;;;;;;;12.88;7.22;;;27.50;76.80;;;;;;5034584;28;20112;-76
2023/08/22 07:08:35;;;;;;;14.15;7.18;;;27.60;76.30;;;;;;5033179;28;20104;-73
2023/08/22 07:11:02;;;;;;;10.55;7.05;;;27.60;76.50;;;;;;5033424;28;20091;-73
2023/08/22 07:13:28;;;;;;;8.75;7.05;;;27.70;76.20;;;;;;5033926;28;20057;-72
2023/08/22 07:15:54;;;;;;;10.07;7.20;;;27.80;75.60;;;;;;5032269;28;20033;-73
2023/08/22 07:18:20;;;;;;;9.20;6.80;;;27.80;75.40;;;;;;5034759;28;20030;-72
2023/08/22 07:20:46;;;;;;;10.60;7.75;;;27.90;75.40;;;;;;5033445;28;20078;-72
2023/08/22 07:23:12;;;;;;;11.30;7.45;;;28.00;75.80;;;;;;5032681;28;20044;-75
2023/08/22 07:25:40;;;;;;;12.20;7.07;;;28.10;75.60;;;;;;5032840;28;20101;-72
2023/08/22 07:28:06;;;;;;;8.90;7.20;;;28.10;75.40;;;;;;5032498;28;20480;-71
2023/08/22 07:30:34;;;;;;;11.90;7.38;;;28.20;75.00;;;;;;5032597;28;20491;-73
2023/08/22 07:33:00;;;;;;;12.18;7.47;;;28.20;75.50;;;;;;5032606;28;20471;-73
2023/08/22 07:35:27;;;;;;;10.70;7.28;;;28.30;76.00;;;;;;5032400;28;20120;-72
2023/08/22 07:37:53;;;;;;;10.57;7.13;;;28.40;75.60;;;;;;5032301;28;20042;-73
2023/08/22 07:40:19;;;;;;;10.00;7.28;;;28.40;75.40;;;;;;5032444;28;20032;-71
2023/08/22 07:42:44;;;;;;;10.30;7.78;;;28.40;75.30;;;;;;5033450;28;20018;-73
2023/08/22 07:45:10;;;;;;;11.55;7.20;;;28.50;75.10;;;;;;5033257;28;20030;-73
2023/08/22 07:47:36;;;;;;;9.32;7.38;;;28.60;74.80;;;;;;5034280;28;20013;-73
2023/08/22 07:50:03;;;;;;;11.13;7.20;;;28.60;75.00;;;;;;5034217;28;20041;-73
2023/08/22 07:52:30;;;;;;;9.82;7.38;;;28.70;75.20;;;;;;5032924;28;20013;-72
2023/08/22 07:54:56;;;;;;;10.07;7.18;;;28.70;74.60;;;;;;5034174;28;20030;-73
2023/08/22 07:57:22;;;;;;;12.88;7.65;;;28.80;74.50;;;;;;5034146;28;20035;-73
2023/08/22 07:59:47;;;;;;;10.02;7.38;;;28.80;74.30;;;;;;5034023;28;20108;-72
2023/08/22 08:02:13;;;;;;;8.80;6.93;;;28.90;74.90;;;;;;5034228;28;20439;-73
2023/08/22 08:04:39;;;;;;;13.93;7.85;;;29.00;74.70;;;;;;5034192;28;20021;-72
2023/08/22 08:07:05;;;;;;;8.82;7.15;;;29.00;74.50;;;;;;5034008;28;20028;-72
2023/08/22 08:09:32;;;;;;;10.30;7.00;;;29.00;74.00;;;;;;5034078;28;20104;-73
2023/08/22 08:11:58;;;;;;;10.20;6.95;;;29.10;73.70;;;;;;5033435;28;20036;-73
2023/08/22 08:14:24;;;;;;;10.52;6.80;;;29.20;73.30;;;;;;5033796;28;20100;-73
2023/08/22 08:16:49;;;;;;;9.23;7.25;;;29.20;73.70;;;;;;5033789;28;20087;-73
2023/08/22 08:19:16;;;;;;;8.90;7.00;;;29.30;73.20;;;;;;5033672;28;20044;-72
2023/08/22 08:21:42;;;;;;;8.98;7.85;;;29.40;72.90;;;;;;5033899;28;20017;-73
2023/08/22 08:24:08;;;;;;;7.72;6.72;;;29.40;73.10;;;;;;5033609;28;20025;-72
2023/08/22 08:26:34;;;;;;;9.55;7.00;;;29.50;73.50;;;;;;5033671;28;20029;-73
2023/08/22 08:28:59;;;;;;;10.55;6.32;;;29.50;72.60;;;;;;5033528;28;20041;-73
2023/08/22 08:31:25;;;;;;;10.93;7.53;;;29.60;73.00;;;;;;5033648;28;20381;-73
2023/08/22 08:33:51;;;;;;;9.45;7.57;;;29.60;72.60;;;;;;5033595;28;20036;-73
2023/08/22 08:36:17;;;;;;;7.85;6.90;;;29.70;72.80;;;;;;5032953;28;20056;-74
2023/08/22 08:38:43;;;;;;;13.23;6.32;;;29.70;72.10;;;;;;5033499;28;20052;-72
2023/08/22 08:41:09;;;;;;;8.38;6.72;;;29.80;72.40;;;;;;5033437;28;20033;-72
2023/08/22 08:43:35;;;;;;;10.20;6.45;;;29.90;71.60;;;;;;5033246;28;20025;-71
2023/08/22 08:46:03;;;;;;;13.38;6.80;;;29.90;71.60;;;;;;5033272;28;20036;-72
2023/08/22 08:48:30;;;;;;;8.13;6.78;;;30.00;71.00;;;;;;5032908;28;20117;-72
2023/08/22 08:51:00;;;;;;;9.32;6.55;;;30.00;71.10;;;;;;5032775;28;20026;-71
2023/08/22 08:53:27;;;;;;;12.20;6.68;;;30.00;70.40;;;;;;5032750;28;20595;-72
2023/08/22 08:55:53;;;;;;;10.90;6.55;;;30.10;71.70;;;;;;5032001;28;20112;-71
2023/08/22 08:58:19;;;;;;;9.15;6.85;;;30.10;70.60;;;;;;5032835;28;20072;-74
2023/08/22 09:00:45;;;;;;;21.73;8.10;;;30.20;71.00;;;;;;5033053;28;20057;-76
2023/08/22 09:03:11;;;;;;;12.07;6.82;;;30.20;69.90;;;;;;5032381;28;20029;-73
2023/08/22 09:05:37;;;;;;;9.00;6.63;;;30.30;69.30;;;;;;5031766;28;20040;-72
2023/08/22 09:08:18;;;;;;;6.82;6.13;;;30.30;68.80;;;;;;5032554;28;20516;-72
2023/08/22 09:10:53;;;;;;;7.95;6.28;;;30.40;67.90;;;;;;5032629;28;20103;-74
2023/08/22 09:13:29;;;;;;;8.88;6.32;;;30.40;68.20;;;;;;5032843;28;20029;-71
2023/08/22 09:15:59;;;;;;;10.95;6.43;;;30.50;68.30;;;;;;5032398;28;20119;-72
2023/08/22 09:18:26;;;;;;;13.18;6.78;;;30.50;68.50;;;;;;5032239;28;20018;-72
2023/08/22 09:20:52;;;;;;;6.75;5.63;;;30.50;67.60;;;;;;5032140;28;20568;-77
2023/08/22 09:23:36;;;;;;;7.30;6.00;;;30.50;67.40;;;;;;5032414;28;20022;-72
2023/08/22 09:26:02;;;;;;;10.20;5.82;;;30.50;67.30;;;;;;5032123;28;20083;-72
2023/08/22 09:28:28;;;;;;;8.45;5.78;;;30.60;67.90;;;;;;5032329;28;20021;-75
2023/08/22 09:30:54;;;;;;;7.47;5.40;;;30.60;67.30;;;;;;5032127;28;20461;-74
2023/08/22 09:33:20;;;;;;;7.15;5.63;;;30.70;67.40;;;;;;5033215;28;20471;-69
2023/08/22 09:35:48;;;;;;;9.60;5.72;;;30.80;67.10;;;;;;5032177;28;20033;-72
2023/08/22 09:38:14;;;;;;;10.38;5.72;;;30.80;66.20;;;;;;5032470;28;20041;-69
2023/08/22 09:40:55;;;;;;;7.47;5.60;;;30.90;66.00;;;;;;5031489;28;20084;-75
2023/08/22 09:43:21;;;;;;;6.88;5.07;;;30.90;65.70;;;;;;5032569;28;20389;-70
2023/08/22 09:45:51;;;;;;;7.38;5.07;;;30.90;65.40;;;;;;5032924;28;20493;-75
2023/08/22 09:48:23;;;;;;;6.03;5.43;;;31.00;64.40;;;;;;5032584;28;20048;-75
2023/08/22 09:50:51;;;;;;;14.82;5.50;;;31.00;64.20;;;;;;5032283;28;20033;-72
2023/08/22 09:53:20;;;;;;;9.35;5.07;;;31.10;63.30;;;;;;5032123;28;20026;-72
2023/08/22 09:55:46;;;;;;;6.30;4.97;;;31.10;63.80;;;;;;5032356;28;20057;-73
2023/08/22 09:58:13;;;;;;;6.60;4.90;;;31.20;62.40;;;;;;5032320;28;20025;-72
2023/08/22 10:00:38;;;;;;;8.43;5.10;;;31.20;62.10;;;;;;5032498;28;20026;-72
2023/08/22 10:03:05;;;;;;;9.23;4.72;;;31.30;62.50;;;;;;5032654;28;20032;-72
2023/08/22 10:05:33;;;;;;;11.32;4.53;;;31.40;62.30;;;;;;5032327;28;20021;-72
2023/08/22 10:07:59;;;;;;;6.68;4.47;;;31.50;60.50;;;;;;5032585;28;20025;-72
2023/08/22 10:10:26;;;;;;;7.60;4.68;;;31.50;60.70;;;;;;5035882;28;20099;-72
2023/08/22 10:12:53;;;;;;;7.07;4.28;;;31.60;60.30;;;;;;5035891;28;20022;-71
2023/08/22 10:15:19;;;;;;;10.80;4.50;;;31.60;59.70;;;;;;5035697;28;20021;-72
2023/08/22 10:17:45;;;;;;;6.97;4.72;;;31.60;60.10;;;;;;5035759;28;20559;-74
2023/08/22 10:20:15;;;;;;;7.07;4.93;;;31.70;59.70;;;;;;5035511;28;20076;-77
2023/08/22 10:22:41;;;;;;;16.13;5.03;;;31.70;59.40;;;;;;5035205;28;20750;-76
2023/08/22 10:25:07;;;;;;;6.28;4.72;;;31.80;59.40;;;;;;5034855;28;20037;-76
2023/08/22 10:27:37;;;;;;;9.15;4.47;;;31.80;58.60;;;;;;5035619;28;20025;-75
2023/08/22 10:30:12;;;;;;;6.93;3.90;;;31.80;58.20;;;;;;5035662;28;20033;-75
2023/08/22 10:32:38;;;;;;;7.75;4.55;;;31.90;56.50;;;;;;5035217;28;20083;-73
2023/08/22 10:35:24;;;;;;;8.05;4.63;;;31.90;57.10;;;;;;5035621;28;20026;-76
2023/08/22 10:37:52;;;;;;;9.95;4.68;;;31.90;57.00;;;;;;5035527;28;20092;-76
2023/08/22 10:40:28;;;;;;;6.68;4.22;;;32.00;57.00;;;;;;5034010;28;20018;-76
2023/08/22 10:43:09;;;;;;;5.88;4.15;;;32.00;57.40;;;;;;5035294;28;20512;-76
2023/08/22 10:45:48;;;;;;;5.97;4.53;;;32.00;56.60;;;;;;5033489;28;20044;-75
2023/08/22 10:48:16;;;;;;;6.85;4.25;;;32.10;56.00;;;;;;5033634;28;20026;-73
2023/08/22 10:50:47;;;;;;;6.85;4.63;;;32.10;55.00;;;;;;5034166;28;20033;-74
2023/08/22 10:53:21;;;;;;;5.63;4.68;;;32.20;55.20;;;;;;5034243;28;20076;-73
2023/08/22 10:55:48;;;;;;;5.13;4.63;;;32.20;56.10;;;;;;5033945;28;20374;-72
2023/08/22 10:58:37;;;;;;;5.13;4.32;;;32.20;56.00;;;;;;5034455;28;20470;-72
2023/08/22 11:01:10;;;;;;;6.45;4.57;;;32.20;55.90;;;;;;5034968;28;20025;-73
2023/08/22 11:03:36;;;;;;;7.65;4.60;;;32.30;55.80;;;;;;5034940;28;20026;-69
2023/08/22 11:06:13;;;;;;;6.53;4.72;;;32.30;55.60;;;;;;5033622;28;20056;-71
2023/08/22 11:08:42;;;;;;;7.85;4.38;;;32.40;56.60;;;;;;5034550;28;20025;-73
2023/08/22 11:11:09;;;;;;;12.45;4.53;;;32.40;56.20;;;;;;5033432;28;20037;-72
2023/08/22 11:13:37;;;;;;;6.20;4.10;;;32.50;56.70;;;;;;5034545;28;20100;-72
2023/08/22 11:16:08;;;;;;;5.80;4.50;;;32.50;56.10;;;;;;5034122;28;20032;-71
2023/08/22 11:18:34;;;;;;;11.68;4.35;;;32.50;55.60;;;;;;5034004;28;20022;-71
2023/08/22 11:21:01;;;;;;;6.45;4.43;;;32.60;56.40;;;;;;5034420;28;20100;-72
2023/08/22 11:23:31;;;;;;;8.05;4.53;;;32.60;56.00;;;;;;5034684;28;20018;-72
2023/08/22 11:25:57;;;;;;;6.53;4.50;;;32.70;56.10;;;;;;5034422;28;20070;-71
2023/08/22 11:28:30;;;;;;;7.10;4.32;;;32.70;55.70;;;;;;5034210;28;20025;-71
2023/08/22 11:30:56;;;;;;;8.02;4.30;;;32.70;55.70;;;;;;5034408;28;20030;-75
2023/08/22 11:33:23;;;;;;;9.15;5.03;;;32.80;55.40;;;;;;5033600;28;20022;-73
2023/08/22 11:35:49;;;;;;;10.43;4.57;;;32.90;55.60;;;;;;5032498;28;20033;-71
2023/08/22 11:38:15;;;;;;;7.80;4.60;;;32.90;55.10;;;;;;5033386;28;20108;-71
2023/08/22 11:40:42;;;;;;;16.52;5.18;;;33.00;56.20;;;;;;5031576;28;20029;-74
2023/08/22 11:43:09;;;;;;;7.47;5.30;;;33.00;56.50;;;;;;5031324;28;20064;-73
2023/08/22 11:45:48;;;;;;;8.00;5.03;;;33.00;56.40;;;;;;5032412;28;20477;-77
2023/08/22 11:48:16;;;;;;;7.95;5.30;;;33.10;57.20;;;;;;5033642;28;20014;-73
2023/08/22 11:50:44;;;;;;;7.18;5.65;;;33.10;57.50;;;;;;5034317;28;20469;-73
2023/08/22 11:53:13;;;;;;;8.23;5.63;;;33.20;58.50;;;;;;5033495;28;20071;-74
2023/08/22 11:55:43;;;;;;;9.35;4.57;;;33.20;58.50;;;;;;5033396;28;20056;-75
2023/08/22 11:58:15;;;;;;;9.37;5.17;;;33.20;58.30;;;;;;5033482;28;20025;-74
2023/08/22 12:00:41;;;;;;;8.52;5.60;;;33.20;58.20;;;;;;5033404;28;20029;-74
2023/08/22 12:03:09;;;;;;;10.23;5.28;;;33.30;58.50;;;;;;5033777;28;20049;-74
2023/08/22 12:05:40;;;;;;;9.13;4.63;;;33.30;57.80;;;;;;5033629;28;20032;-75
2023/08/22 12:08:06;;;;;;;8.35;4.47;;;33.40;56.70;;;;;;5033410;28;20029;-74
2023/08/22 12:10:42;;;;;;;6.53;4.47;;;33.40;56.30;;;;;;5032461;28;20095;-76
2023/08/22 12:13:09;;;;;;;6.20;4.70;;;33.40;57.00;;;;;;5033780;28;20060;-76
2023/08/22 12:15:36;;;;;;;6.15;4.80;;;33.50;56.70;;;;;;5033274;28;20556;-73
2023/08/22 12:18:04;;;;;;;8.35;5.22;;;33.50;57.20;;;;;;5033146;28;20029;-73
2023/08/22 12:20:30;;;;;;;9.75;4.82;;;33.50;56.80;;;;;;5031172;28;20029;-74
2023/08/22 12:22:56;;;;;;;5.78;4.70;;;33.50;57.70;;;;;;5033542;28;20025;-73
2023/08/22 12:25:22;;;;;;;6.13;4.35;;;33.60;57.40;;;;;;5033247;28;20116;-73
2023/08/22 12:27:47;;;;;;;9.20;4.55;;;33.60;56.30;;;;;;5033579;28;20095;-76
2023/08/22 12:30:13;;;;;;;8.77;5.03;;;33.60;56.20;;;;;;5033231;28;20025;-77
2023/08/22 12:32:42;;;;;;;6.18;5.35;;;33.70;56.20;;;;;;5032580;28;20033;-75
2023/08/22 12:35:10;;;;;;;7.68;5.55;;;33.70;56.90;;;;;;5033569;28;20022;-74
2023/08/22 12:37:36;;;;;;;9.07;5.40;;;33.70;57.20;;;;;;5033352;28;20045;-72
2023/08/22 12:40:03;;;;;;;8.15;5.38;;;33.80;57.20;;;;;;5033032;28;20025;-73